NATURA VA

 INFORMACIÓN METAR y TAF
METAR FOR BIKF
ADDS - METARS form results

(2106 UTC 18 August 2019)
Data provider http://aviationweather.gov/metar/data/
 
METAR text: BIKF 182100Z 03014KT CAVOK 09/05 Q1005
Conditions at: BIKF (KEFLAVIK (CIV/MI, IS) observed 2100 UTC 18 August 2019
Temperature: 9.0°C (48°F)
Dewpoint: 5.0°C (41°F) [RH = 76%]
Pressure (altimeter): 29.68 inches Hg (1005.0 mb)
Winds: from the NNE (30 degrees) at 16 MPH (14 knots; 7.2 m/s)
Visibility: 6 or more miles (10+ km)
Ceiling: ceiling and visibility are OK
Clouds: unknown
Weather: no significant weather observed at this time

METAR text: BIKF 182030Z 02014KT CAVOK 10/05 Q1005
Conditions at: BIKF (KEFLAVIK (CIV/MI, IS) observed 2030 UTC 18 August 2019
Temperature: 10.0°C (50°F)
Dewpoint: 5.0°C (41°F) [RH = 71%]
Pressure (altimeter): 29.68 inches Hg (1005.0 mb)
Winds: from the NNE (20 degrees) at 16 MPH (14 knots; 7.2 m/s)
Visibility: 6 or more miles (10+ km)
Ceiling: ceiling and visibility are OK
Clouds: unknown
Weather: no significant weather observed at this time

Forecast for: BIKF (KEFLAVIK (CIV/MI, IS)
Text: TAF BIKF 181922Z 1821/1921 02020KT 9999 FEW015 TX14/1918Z TN06/1906Z
Forecast period: 2100 UTC 18 August 2019 to 2100 UTC 19 August 2019
Forecast type: FROM: standard forecast or significant change
Winds: from the NNE (20 degrees) at 23 MPH (20 knots; 10.3 m/s)
Visibility: 6 or more miles 10+ km)
Ceiling: at least 12,000 feet AGL
Clouds: few clouds at 1500 feet AGL
Weather: no significant weather forecast for this period
Text: BECMG 1821/1823 02010KT
Forecast period: 2100 UTC 18 August 2019 to 2100 UTC 19 August 2019
Forecast type: BECOMING: Conditions expected to become as follows by 2300 UTC 18 August 2019
Winds: from the NNE (20 degrees) at 12 MPH (10 knots; 5.1 m/s)
Visibility: 6 or more miles 10+ km)
Ceiling: at least 12,000 feet AGL
Clouds: few clouds at 1500 feet AGL
Weather: no significant weather forecast for this period

 MAPA DE AEROPUERTO

 INFORMACIÓN DE PISTA
Pista 02 Longitud 10019 ft Ancho 197 ft
Elevación 137 ft Umbral desplazado 19 ft Rumbo de pista 360
Pista 20 Longitud 10019 ft Ancho 197 ft
Elevación 163 ft Umbral desplazado 19 ft Rumbo de pista 180
Pista 11 Longitud 10056 ft Ancho 197 ft
Elevación 111 ft Umbral desplazado 43 ft Rumbo de pista 90
Pista 29 Longitud 10056 ft Ancho 197 ft
Elevación 171 ft Umbral desplazado 43 ft Rumbo de pista 270

 FRECUANCIAS DEL AEROPUERTO
Tipo A/G Nombre AIR GND Frecuencia 131.9 MHZ
Tipo APP Nombre APP Frecuencia 119.3 MHZ
Tipo ATIS Nombre ATIS Frecuencia 128.3 MHZ
Tipo DEP Nombre DEP Frecuencia 119.3 MHZ
Tipo GND Nombre GND Frecuencia 121.9 MHZ
Tipo OPS Nombre BASE OPS Frecuencia 129 MHZ
Tipo PMSV Nombre PMSV METR Frecuencia 125 MHZ
Tipo TWR Nombre TWR Frecuencia 118.3 MHZ

 RADIO AYUDAS DEL AEROPUERTO
Tipo VORTAC Nombre Keflavik Frecuencia 112000 KHZ
Tipo NDB Nombre Keflavik Frecuencia 392 KHZ
Tipo NDB Nombre Oscar Kilo Frecuencia 364 KHZ



Powered by Virtual Airlines Manager [v2.6.2]